sensor_id;sensor_type;location;lat;lon;timestamp;temperature;humidity
3380;DHT22;1703;51.964;7.642;2023-09-30T00:01:57;15.10;99.90
3380;DHT22;1703;51.964;7.642;2023-09-30T00:04:24;15.10;99.90
3380;DHT22;1703;51.964;7.642;2023-09-30T00:06:53;15.10;99.90
3380;DHT22;1703;51.964;7.642;2023-09-30T00:09:21;15.10;99.90
3380;DHT22;1703;51.964;7.642;2023-09-30T00:11:48;15.10;99.90
3380;DHT22;1703;51.964;7.642;2023-09-30T00:14:15;15.10;99.90
3380;DHT22;1703;51.964;7.642;2023-09-30T00:16:42;15.10;99.90
3380;DHT22;1703;51.964;7.642;2023-09-30T00:19:09;15.00;99.90
3380;DHT22;1703;51.964;7.642;2023-09-30T00:21:36;15.00;99.90
3380;DHT22;1703;51.964;7.642;2023-09-30T00:24:03;15.00;99.90
3380;DHT22;1703;51.964;7.642;2023-09-30T00:26:32;15.00;99.90
3380;DHT22;1703;51.964;7.642;2023-09-30T00:28:58;15.00;99.90
3380;DHT22;1703;51.964;7.642;2023-09-30T00:31:25;15.00;99.90
3380;DHT22;1703;51.964;7.642;2023-09-30T00:33:52;15.00;99.90
3380;DHT22;1703;51.964;7.642;2023-09-30T00:36:19;15.00;99.90
3380;DHT22;1703;51.964;7.642;2023-09-30T00:38:46;15.00;99.90
3380;DHT22;1703;51.964;7.642;2023-09-30T00:41:13;15.00;99.90
3380;DHT22;1703;51.964;7.642;2023-09-30T00:43:41;14.90;99.90
3380;DHT22;1703;51.964;7.642;2023-09-30T00:46:26;15.00;99.90
3380;DHT22;1703;51.964;7.642;2023-09-30T00:48:54;14.90;99.90
3380;DHT22;1703;51.964;7.642;2023-09-30T00:51:21;14.90;99.90
3380;DHT22;1703;51.964;7.642;2023-09-30T00:53:48;14.90;99.90
3380;DHT22;1703;51.964;7.642;2023-09-30T00:56:16;14.90;99.90
3380;DHT22;1703;51.964;7.642;2023-09-30T00:58:46;14.90;99.90
3380;DHT22;1703;51.964;7.642;2023-09-30T01:01:13;14.90;99.90
3380;DHT22;1703;51.964;7.642;2023-09-30T01:03:40;14.90;99.90
3380;DHT22;1703;51.964;7.642;2023-09-30T01:06:07;14.90;99.90
3380;DHT22;1703;51.964;7.642;2023-09-30T01:08:35;14.80;99.90
3380;DHT22;1703;51.964;7.642;2023-09-30T01:11:02;14.80;99.90
3380;DHT22;1703;51.964;7.642;2023-09-30T01:13:32;14.80;99.90
3380;DHT22;1703;51.964;7.642;2023-09-30T01:16:04;14.80;99.90
3380;DHT22;1703;51.964;7.642;2023-09-30T01:18:31;14.80;99.90
3380;DHT22;1703;51.964;7.642;2023-09-30T01:20:59;14.80;99.90
3380;DHT22;1703;51.964;7.642;2023-09-30T01:23:30;14.80;99.90
3380;DHT22;1703;51.964;7.642;2023-09-30T01:25:57;14.80;99.90
3380;DHT22;1703;51.964;7.642;2023-09-30T01:28:24;14.80;99.90
3380;DHT22;1703;51.964;7.642;2023-09-30T01:30:52;14.80;99.90
3380;DHT22;1703;51.964;7.642;2023-09-30T01:33:19;14.80;99.90
3380;DHT22;1703;51.964;7.642;2023-09-30T01:35:46;14.80;99.90
3380;DHT22;1703;51.964;7.642;2023-09-30T01:38:12;14.80;99.90
3380;DHT22;1703;51.964;7.642;2023-09-30T01:40:41;14.80;99.90
3380;DHT22;1703;51.964;7.642;2023-09-30T01:43:09;14.90;99.90
3380;DHT22;1703;51.964;7.642;2023-09-30T01:45:39;14.90;99.90
3380;DHT22;1703;51.964;7.642;2023-09-30T01:48:06;14.90;99.90
3380;DHT22;1703;51.964;7.642;2023-09-30T01:50:36;14.90;99.90
3380;DHT22;1703;51.964;7.642;2023-09-30T01:53:03;14.90;99.90
3380;DHT22;1703;51.964;7.642;2023-09-30T01:55:30;14.80;99.90
3380;DHT22;1703;51.964;7.642;2023-09-30T01:57:58;14.90;99.90
3380;DHT22;1703;51.964;7.642;2023-09-30T02:00:26;14.80;99.90
3380;DHT22;1703;51.964;7.642;2023-09-30T02:02:53;14.80;99.90
3380;DHT22;1703;51.964;7.642;2023-09-30T02:05:21;14.80;99.90
3380;DHT22;1703;51.964;7.642;2023-09-30T02:07:49;14.80;99.90
3380;DHT22;1703;51.964;7.642;2023-09-30T02:10:16;14.80;99.90
3380;DHT22;1703;51.964;7.642;2023-09-30T02:12:44;14.70;99.90
3380;DHT22;1703;51.964;7.642;2023-09-30T02:15:13;14.60;99.90
3380;DHT22;1703;51.964;7.642;2023-09-30T02:17:42;14.70;99.90
3380;DHT22;1703;51.964;7.642;2023-09-30T02:20:12;14.60;99.90
3380;DHT22;1703;51.964;7.642;2023-09-30T02:22:42;14.60;99.90
3380;DHT22;1703;51.964;7.642;2023-09-30T02:25:10;14.60;99.90
3380;DHT22;1703;51.964;7.642;2023-09-30T02:27:39;14.60;99.90
3380;DHT22;1703;51.964;7.642;2023-09-30T02:30:08;14.60;99.90
3380;DHT22;1703;51.964;7.642;2023-09-30T02:32:38;14.50;99.90
3380;DHT22;1703;51.964;7.642;2023-09-30T02:35:05;14.50;99.90
3380;DHT22;1703;51.964;7.642;2023-09-30T02:37:33;14.50;99.90
3380;DHT22;1703;51.964;7.642;2023-09-30T02:40:02;14.40;99.90
3380;DHT22;1703;51.964;7.642;2023-09-30T02:42:34;14.40;99.90
3380;DHT22;1703;51.964;7.642;2023-09-30T02:45:02;14.40;99.90
3380;DHT22;1703;51.964;7.642;2023-09-30T02:47:28;14.40;99.90
3380;DHT22;1703;51.964;7.642;2023-09-30T02:49:58;14.40;99.90
3380;DHT22;1703;51.964;7.642;2023-09-30T02:52:25;14.40;99.90
3380;DHT22;1703;51.964;7.642;2023-09-30T02:54:52;14.30;99.90
3380;DHT22;1703;51.964;7.642;2023-09-30T02:57:20;14.40;99.90
3380;DHT22;1703;51.964;7.642;2023-09-30T02:59:47;14.40;99.90
3380;DHT22;1703;51.964;7.642;2023-09-30T03:02:14;14.40;99.90
3380;DHT22;1703;51.964;7.642;2023-09-30T03:04:44;14.40;99.90
3380;DHT22;1703;51.964;7.642;2023-09-30T03:07:13;14.40;99.90
3380;DHT22;1703;51.964;7.642;2023-09-30T03:09:40;14.40;99.90
3380;DHT22;1703;51.964;7.642;2023-09-30T03:12:07;14.40;99.90
3380;DHT22;1703;51.964;7.642;2023-09-30T03:14:35;14.40;99.90
3380;DHT22;1703;51.964;7.642;2023-09-30T03:17:02;14.40;99.90
3380;DHT22;1703;51.964;7.642;2023-09-30T03:19:29;14.30;99.90
3380;DHT22;1703;51.964;7.642;2023-09-30T03:21:56;14.40;99.90
3380;DHT22;1703;51.964;7.642;2023-09-30T03:24:24;14.40;99.90
3380;DHT22;1703;51.964;7.642;2023-09-30T03:26:52;14.40;99.90
3380;DHT22;1703;51.964;7.642;2023-09-30T03:29:19;14.40;99.90
3380;DHT22;1703;51.964;7.642;2023-09-30T03:31:46;14.30;99.90
3380;DHT22;1703;51.964;7.642;2023-09-30T03:34:13;14.40;99.90
3380;DHT22;1703;51.964;7.642;2023-09-30T03:36:42;14.40;99.90
3380;DHT22;1703;51.964;7.642;2023-09-30T03:39:09;14.30;99.90
3380;DHT22;1703;51.964;7.642;2023-09-30T03:41:41;14.30;99.90
3380;DHT22;1703;51.964;7.642;2023-09-30T03:44:08;14.20;99.90
3380;DHT22;1703;51.964;7.642;2023-09-30T03:46:35;14.20;99.90
3380;DHT22;1703;51.964;7.642;2023-09-30T03:49:02;14.30;99.90
3380;DHT22;1703;51.964;7.642;2023-09-30T03:51:29;14.20;99.90
3380;DHT22;1703;51.964;7.642;2023-09-30T03:53:56;14.20;99.90
3380;DHT22;1703;51.964;7.642;2023-09-30T03:56:23;14.20;99.90
3380;DHT22;1703;51.964;7.642;2023-09-30T03:58:52;14.20;99.90
3380;DHT22;1703;51.964;7.642;2023-09-30T04:01:18;14.20;99.90
3380;DHT22;1703;51.964;7.642;2023-09-30T04:03:46;14.20;99.90
3380;DHT22;1703;51.964;7.642;2023-09-30T04:06:13;14.20;99.90
3380;DHT22;1703;51.964;7.642;2023-09-30T04:08:40;14.20;99.90
3380;DHT22;1703;51.964;7.642;2023-09-30T04:11:09;14.20;99.90
3380;DHT22;1703;51.964;7.642;2023-09-30T04:13:42;14.20;99.90
3380;DHT22;1703;51.964;7.642;2023-09-30T04:16:10;14.10;99.90
3380;DHT22;1703;51.964;7.642;2023-09-30T04:18:37;14.10;99.90
3380;DHT22;1703;51.964;7.642;2023-09-30T04:21:06;14.10;99.90
3380;DHT22;1703;51.964;7.642;2023-09-30T04:23:33;14.10;99.90
3380;DHT22;1703;51.964;7.642;2023-09-30T04:26:02;14.10;99.90
3380;DHT22;1703;51.964;7.642;2023-09-30T04:28:30;14.10;99.90
3380;DHT22;1703;51.964;7.642;2023-09-30T04:30:57;14.10;99.90
3380;DHT22;1703;51.964;7.642;2023-09-30T04:33:26;14.10;99.90
3380;DHT22;1703;51.964;7.642;2023-09-30T04:35:52;14.10;99.90
3380;DHT22;1703;51.964;7.642;2023-09-30T04:38:19;14.00;99.90
3380;DHT22;1703;51.964;7.642;2023-09-30T04:40:46;14.00;99.90
3380;DHT22;1703;51.964;7.642;2023-09-30T04:43:17;14.00;99.90
3380;DHT22;1703;51.964;7.642;2023-09-30T04:45:44;14.00;99.90
3380;DHT22;1703;51.964;7.642;2023-09-30T04:48:10;14.00;99.90
3380;DHT22;1703;51.964;7.642;2023-09-30T04:50:40;14.00;99.90
3380;DHT22;1703;51.964;7.642;2023-09-30T04:53:07;14.00;99.90
3380;DHT22;1703;51.964;7.642;2023-09-30T04:55:34;14.00;99.90
3380;DHT22;1703;51.964;7.642;2023-09-30T04:58:03;14.00;99.90
3380;DHT22;1703;51.964;7.642;2023-09-30T05:00:31;14.00;99.90
3380;DHT22;1703;51.964;7.642;2023-09-30T05:02:58;13.90;99.90
3380;DHT22;1703;51.964;7.642;2023-09-30T05:05:25;14.00;99.90
3380;DHT22;1703;51.964;7.642;2023-09-30T05:07:53;14.00;99.90
3380;DHT22;1703;51.964;7.642;2023-09-30T05:10:20;14.00;99.90
3380;DHT22;1703;51.964;7.642;2023-09-30T05:12:48;14.00;99.90
3380;DHT22;1703;51.964;7.642;2023-09-30T05:15:15;14.00;99.90
3380;DHT22;1703;51.964;7.642;2023-09-30T05:17:42;14.00;99.90
3380;DHT22;1703;51.964;7.642;2023-09-30T05:20:10;14.00;99.90
3380;DHT22;1703;51.964;7.642;2023-09-30T05:22:38;14.00;99.90
3380;DHT22;1703;51.964;7.642;2023-09-30T05:25:08;14.00;99.90
3380;DHT22;1703;51.964;7.642;2023-09-30T05:27:34;14.00;99.90
3380;DHT22;1703;51.964;7.642;2023-09-30T05:30:01;14.00;99.90
3380;DHT22;1703;51.964;7.642;2023-09-30T05:32:28;14.00;99.90
3380;DHT22;1703;51.964;7.642;2023-09-30T05:34:56;14.00;99.90
3380;DHT22;1703;51.964;7.642;2023-09-30T05:37:24;14.00;99.90
3380;DHT22;1703;51.964;7.642;2023-09-30T05:39:51;14.00;99.90
3380;DHT22;1703;51.964;7.642;2023-09-30T05:42:19;14.00;99.90
3380;DHT22;1703;51.964;7.642;2023-09-30T05:44:47;14.00;99.90
3380;DHT22;1703;51.964;7.642;2023-09-30T05:50:35;14.00;99.90
3380;DHT22;1703;51.964;7.642;2023-09-30T05:53:03;14.00;99.90
3380;DHT22;1703;51.964;7.642;2023-09-30T05:55:31;14.00;99.90
3380;DHT22;1703;51.964;7.642;2023-09-30T05:57:59;14.00;99.90
3380;DHT22;1703;51.964;7.642;2023-09-30T06:00:26;13.90;99.90
3380;DHT22;1703;51.964;7.642;2023-09-30T06:02:56;13.90;99.90
3380;DHT22;1703;51.964;7.642;2023-09-30T06:05:23;13.90;99.90
3380;DHT22;1703;51.964;7.642;2023-09-30T06:07:51;13.90;99.90
3380;DHT22;1703;51.964;7.642;2023-09-30T06:10:19;13.90;99.90
3380;DHT22;1703;51.964;7.642;2023-09-30T06:12:46;13.90;99.90
3380;DHT22;1703;51.964;7.642;2023-09-30T06:15:15;13.90;99.90
3380;DHT22;1703;51.964;7.642;2023-09-30T06:17:47;13.90;99.90
3380;DHT22;1703;51.964;7.642;2023-09-30T06:20:14;14.00;99.90
3380;DHT22;1703;51.964;7.642;2023-09-30T06:22:43;14.00;99.90
3380;DHT22;1703;51.964;7.642;2023-09-30T06:25:11;13.90;99.90
3380;DHT22;1703;51.964;7.642;2023-09-30T06:27:38;13.90;99.90
3380;DHT22;1703;51.964;7.642;2023-09-30T06:30:06;13.90;99.90
3380;DHT22;1703;51.964;7.642;2023-09-30T06:32:35;14.00;99.90
3380;DHT22;1703;51.964;7.642;2023-09-30T06:35:02;14.00;99.90
3380;DHT22;1703;51.964;7.642;2023-09-30T06:37:30;14.00;99.90
3380;DHT22;1703;51.964;7.642;2023-09-30T06:39:56;14.00;99.90
3380;DHT22;1703;51.964;7.642;2023-09-30T06:42:24;14.00;99.90
3380;DHT22;1703;51.964;7.642;2023-09-30T06:44:53;14.10;99.90
3380;DHT22;1703;51.964;7.642;2023-09-30T06:47:19;14.10;99.90
3380;DHT22;1703;51.964;7.642;2023-09-30T06:49:48;14.20;99.90
3380;DHT22;1703;51.964;7.642;2023-09-30T06:52:14;14.20;99.90
3380;DHT22;1703;51.964;7.642;2023-09-30T06:54:41;14.30;99.90
3380;DHT22;1703;51.964;7.642;2023-09-30T06:57:08;14.30;99.90
3380;DHT22;1703;51.964;7.642;2023-09-30T06:59:35;14.30;99.90
3380;DHT22;1703;51.964;7.642;2023-09-30T07:02:03;14.30;99.90
3380;DHT22;1703;51.964;7.642;2023-09-30T07:04:30;14.40;99.90
3380;DHT22;1703;51.964;7.642;2023-09-30T07:06:58;14.40;99.90
3380;DHT22;1703;51.964;7.642;2023-09-30T07:09:25;14.50;99.90
3380;DHT22;1703;51.964;7.642;2023-09-30T07:11:52;14.40;99.90
3380;DHT22;1703;51.964;7.642;2023-09-30T07:14:19;14.50;99.90
3380;DHT22;1703;51.964;7.642;2023-09-30T07:16:46;14.50;99.90
3380;DHT22;1703;51.964;7.642;2023-09-30T07:19:13;14.50;99.90
3380;DHT22;1703;51.964;7.642;2023-09-30T07:21:40;14.50;99.90
3380;DHT22;1703;51.964;7.642;2023-09-30T07:24:09;14.50;99.90
3380;DHT22;1703;51.964;7.642;2023-09-30T07:26:36;14.50;99.90
3380;DHT22;1703;51.964;7.642;2023-09-30T07:29:03;14.60;99.90
3380;DHT22;1703;51.964;7.642;2023-09-30T07:31:34;14.60;99.90
3380;DHT22;1703;51.964;7.642;2023-09-30T07:34:01;14.60;99.90
3380;DHT22;1703;51.964;7.642;2023-09-30T07:36:28;14.60;99.90
3380;DHT22;1703;51.964;7.642;2023-09-30T07:38:55;14.70;99.90
3380;DHT22;1703;51.964;7.642;2023-09-30T07:41:23;14.80;99.90
3380;DHT22;1703;51.964;7.642;2023-09-30T07:43:50;14.80;99.90
3380;DHT22;1703;51.964;7.642;2023-09-30T07:46:16;14.80;99.90
3380;DHT22;1703;51.964;7.642;2023-09-30T07:48:43;14.80;99.90
3380;DHT22;1703;51.964;7.642;2023-09-30T07:51:10;14.80;99.90
3380;DHT22;1703;51.964;7.642;2023-09-30T07:53:38;14.90;99.90
3380;DHT22;1703;51.964;7.642;2023-09-30T07:56:05;15.00;99.90
3380;DHT22;1703;51.964;7.642;2023-09-30T07:58:33;15.00;99.90
3380;DHT22;1703;51.964;7.642;2023-09-30T08:01:00;15.00;99.90
3380;DHT22;1703;51.964;7.642;2023-09-30T08:03:29;15.10;99.90
3380;DHT22;1703;51.964;7.642;2023-09-30T08:05:56;15.10;99.90
3380;DHT22;1703;51.964;7.642;2023-09-30T08:08:24;15.20;99.90
3380;DHT22;1703;51.964;7.642;2023-09-30T08:10:51;15.20;99.90
3380;DHT22;1703;51.964;7.642;2023-09-30T08:13:21;15.20;99.90
3380;DHT22;1703;51.964;7.642;2023-09-30T08:15:49;15.30;99.90
3380;DHT22;1703;51.964;7.642;2023-09-30T08:18:16;15.40;99.90
3380;DHT22;1703;51.964;7.642;2023-09-30T08:20:43;15.50;99.90
3380;DHT22;1703;51.964;7.642;2023-09-30T08:23:10;15.50;99.90
3380;DHT22;1703;51.964;7.642;2023-09-30T08:25:38;15.40;99.90
3380;DHT22;1703;51.964;7.642;2023-09-30T08:28:05;15.50;99.90
3380;DHT22;1703;51.964;7.642;2023-09-30T08:30:33;15.50;99.90
3380;DHT22;1703;51.964;7.642;2023-09-30T08:33:01;15.50;99.90
3380;DHT22;1703;51.964;7.642;2023-09-30T08:35:29;15.50;99.90
3380;DHT22;1703;51.964;7.642;2023-09-30T08:37:57;15.60;99.90
3380;DHT22;1703;51.964;7.642;2023-09-30T08:40:24;15.60;99.90
3380;DHT22;1703;51.964;7.642;2023-09-30T08:42:52;15.70;99.90
3380;DHT22;1703;51.964;7.642;2023-09-30T08:45:19;15.70;99.90
3380;DHT22;1703;51.964;7.642;2023-09-30T08:47:46;15.80;99.90
3380;DHT22;1703;51.964;7.642;2023-09-30T08:50:16;15.80;99.90
3380;DHT22;1703;51.964;7.642;2023-09-30T08:52:44;15.90;99.90
3380;DHT22;1703;51.964;7.642;2023-09-30T08:55:11;15.90;99.90
3380;DHT22;1703;51.964;7.642;2023-09-30T08:57:41;16.10;99.90
3380;DHT22;1703;51.964;7.642;2023-09-30T09:00:10;16.20;99.90
3380;DHT22;1703;51.964;7.642;2023-09-30T09:02:38;16.30;99.90
3380;DHT22;1703;51.964;7.642;2023-09-30T09:05:06;16.40;99.90
3380;DHT22;1703;51.964;7.642;2023-09-30T09:07:34;16.40;99.90
3380;DHT22;1703;51.964;7.642;2023-09-30T09:10:06;16.50;99.90
3380;DHT22;1703;51.964;7.642;2023-09-30T09:12:34;16.60;99.90
3380;DHT22;1703;51.964;7.642;2023-09-30T09:15:02;16.70;99.90
3380;DHT22;1703;51.964;7.642;2023-09-30T09:17:42;16.80;99.90
3380;DHT22;1703;51.964;7.642;2023-09-30T09:20:10;16.90;99.90
3380;DHT22;1703;51.964;7.642;2023-09-30T09:22:41;16.90;99.90
3380;DHT22;1703;51.964;7.642;2023-09-30T09:25:09;16.90;99.90
3380;DHT22;1703;51.964;7.642;2023-09-30T09:27:37;17.00;99.90
3380;DHT22;1703;51.964;7.642;2023-09-30T09:30:17;17.10;99.90
3380;DHT22;1703;51.964;7.642;2023-09-30T09:32:54;17.10;99.90
3380;DHT22;1703;51.964;7.642;2023-09-30T09:35:22;17.20;99.90
3380;DHT22;1703;51.964;7.642;2023-09-30T09:37:59;17.30;99.90
3380;DHT22;1703;51.964;7.642;2023-09-30T09:40:28;17.30;99.90
3380;DHT22;1703;51.964;7.642;2023-09-30T09:42:55;17.40;99.90
3380;DHT22;1703;51.964;7.642;2023-09-30T09:45:22;17.50;99.90
3380;DHT22;1703;51.964;7.642;2023-09-30T09:47:49;17.50;99.90
3380;DHT22;1703;51.964;7.642;2023-09-30T09:50:18;17.60;99.90
3380;DHT22;1703;51.964;7.642;2023-09-30T09:52:47;17.60;99.90
3380;DHT22;1703;51.964;7.642;2023-09-30T09:55:17;17.80;99.90
3380;DHT22;1703;51.964;7.642;2023-09-30T09:57:45;17.80;99.90
3380;DHT22;1703;51.964;7.642;2023-09-30T10:00:15;17.80;99.90
3380;DHT22;1703;51.964;7.642;2023-09-30T10:02:44;17.90;99.90
3380;DHT22;1703;51.964;7.642;2023-09-30T10:05:12;17.90;99.90
3380;DHT22;1703;51.964;7.642;2023-09-30T10:07:44;17.90;99.90
3380;DHT22;1703;51.964;7.642;2023-09-30T10:10:16;18.00;99.90
3380;DHT22;1703;51.964;7.642;2023-09-30T10:12:44;18.00;99.90
3380;DHT22;1703;51.964;7.642;2023-09-30T10:15:37;18.00;99.90
3380;DHT22;1703;51.964;7.642;2023-09-30T10:18:06;18.10;99.90
3380;DHT22;1703;51.964;7.642;2023-09-30T10:20:34;18.20;99.90
3380;DHT22;1703;51.964;7.642;2023-09-30T10:23:24;18.20;99.90
3380;DHT22;1703;51.964;7.642;2023-09-30T10:25:54;18.20;99.90
3380;DHT22;1703;51.964;7.642;2023-09-30T10:28:37;18.20;99.90
3380;DHT22;1703;51.964;7.642;2023-09-30T10:31:08;18.30;99.90
3380;DHT22;1703;51.964;7.642;2023-09-30T10:33:36;18.40;99.90
3380;DHT22;1703;51.964;7.642;2023-09-30T10:36:03;18.50;99.90
3380;DHT22;1703;51.964;7.642;2023-09-30T10:38:37;18.60;99.90
3380;DHT22;1703;51.964;7.642;2023-09-30T10:41:06;18.80;99.90
3380;DHT22;1703;51.964;7.642;2023-09-30T10:43:35;18.80;99.90
3380;DHT22;1703;51.964;7.642;2023-09-30T10:46:03;18.90;99.90
3380;DHT22;1703;51.964;7.642;2023-09-30T10:48:36;19.00;99.90
3380;DHT22;1703;51.964;7.642;2023-09-30T10:51:21;19.10;99.90
3380;DHT22;1703;51.964;7.642;2023-09-30T10:53:49;19.00;99.90
3380;DHT22;1703;51.964;7.642;2023-09-30T10:56:19;19.00;99.90
3380;DHT22;1703;51.964;7.642;2023-09-30T10:58:47;19.00;99.90
3380;DHT22;1703;51.964;7.642;2023-09-30T11:01:16;19.00;99.90
3380;DHT22;1703;51.964;7.642;2023-09-30T11:03:44;19.10;99.90
3380;DHT22;1703;51.964;7.642;2023-09-30T11:06:12;19.20;99.90
3380;DHT22;1703;51.964;7.642;2023-09-30T11:08:49;19.10;99.90
3380;DHT22;1703;51.964;7.642;2023-09-30T11:11:18;19.10;99.90
3380;DHT22;1703;51.964;7.642;2023-09-30T11:13:45;19.10;99.90
3380;DHT22;1703;51.964;7.642;2023-09-30T11:16:12;19.10;99.90
3380;DHT22;1703;51.964;7.642;2023-09-30T11:18:39;19.10;99.90
3380;DHT22;1703;51.964;7.642;2023-09-30T11:21:07;19.20;99.90
3380;DHT22;1703;51.964;7.642;2023-09-30T11:23:35;19.10;99.90
3380;DHT22;1703;51.964;7.642;2023-09-30T11:26:02;19.00;99.90
3380;DHT22;1703;51.964;7.642;2023-09-30T11:28:38;19.00;99.90
3380;DHT22;1703;51.964;7.642;2023-09-30T11:31:08;18.80;99.90
3380;DHT22;1703;51.964;7.642;2023-09-30T11:33:47;18.80;99.90
3380;DHT22;1703;51.964;7.642;2023-09-30T11:36:18;18.80;99.90
3380;DHT22;1703;51.964;7.642;2023-09-30T11:38:46;18.80;99.90
3380;DHT22;1703;51.964;7.642;2023-09-30T11:41:13;18.90;99.90
3380;DHT22;1703;51.964;7.642;2023-09-30T11:43:58;18.90;99.90
3380;DHT22;1703;51.964;7.642;2023-09-30T11:46:26;18.90;99.90
3380;DHT22;1703;51.964;7.642;2023-09-30T11:48:57;18.90;99.90
3380;DHT22;1703;51.964;7.642;2023-09-30T11:51:25;18.80;99.90
3380;DHT22;1703;51.964;7.642;2023-09-30T11:53:52;18.80;99.90
3380;DHT22;1703;51.964;7.642;2023-09-30T11:56:20;18.90;99.90
3380;DHT22;1703;51.964;7.642;2023-09-30T11:58:49;18.80;99.90
3380;DHT22;1703;51.964;7.642;2023-09-30T12:01:16;18.90;99.90
3380;DHT22;1703;51.964;7.642;2023-09-30T12:03:42;18.80;99.90
3380;DHT22;1703;51.964;7.642;2023-09-30T12:06:09;18.90;99.90
3380;DHT22;1703;51.964;7.642;2023-09-30T12:08:39;18.80;99.90
3380;DHT22;1703;51.964;7.642;2023-09-30T12:11:06;18.80;99.90
3380;DHT22;1703;51.964;7.642;2023-09-30T12:13:33;18.90;99.90
3380;DHT22;1703;51.964;7.642;2023-09-30T12:16:01;19.00;99.90
3380;DHT22;1703;51.964;7.642;2023-09-30T12:18:29;19.10;99.90
3380;DHT22;1703;51.964;7.642;2023-09-30T12:20:56;19.20;99.90
3380;DHT22;1703;51.964;7.642;2023-09-30T12:23:23;19.20;99.90
3380;DHT22;1703;51.964;7.642;2023-09-30T12:25:50;19.30;99.90
3380;DHT22;1703;51.964;7.642;2023-09-30T12:28:17;19.20;99.90
3380;DHT22;1703;51.964;7.642;2023-09-30T12:30:44;19.10;99.90
3380;DHT22;1703;51.964;7.642;2023-09-30T12:33:12;19.10;99.90
3380;DHT22;1703;51.964;7.642;2023-09-30T12:35:39;19.00;99.90
3380;DHT22;1703;51.964;7.642;2023-09-30T12:38:06;19.00;99.90
3380;DHT22;1703;51.964;7.642;2023-09-30T12:40:33;18.90;99.90
3380;DHT22;1703;51.964;7.642;2023-09-30T12:43:00;19.00;99.90
3380;DHT22;1703;51.964;7.642;2023-09-30T12:45:27;18.90;99.90
3380;DHT22;1703;51.964;7.642;2023-09-30T12:47:54;18.90;99.90
3380;DHT22;1703;51.964;7.642;2023-09-30T12:50:23;18.80;99.90
3380;DHT22;1703;51.964;7.642;2023-09-30T12:52:50;18.90;99.90
3380;DHT22;1703;51.964;7.642;2023-09-30T12:55:17;19.00;99.90
3380;DHT22;1703;51.964;7.642;2023-09-30T12:57:44;19.10;99.90
3380;DHT22;1703;51.964;7.642;2023-09-30T13:00:11;19.30;99.90
3380;DHT22;1703;51.964;7.642;2023-09-30T13:02:41;19.40;99.90
3380;DHT22;1703;51.964;7.642;2023-09-30T13:05:08;19.50;99.90
3380;DHT22;1703;51.964;7.642;2023-09-30T13:07:36;19.50;99.90
3380;DHT22;1703;51.964;7.642;2023-09-30T13:10:04;19.60;99.90
3380;DHT22;1703;51.964;7.642;2023-09-30T13:12:33;19.70;99.90
3380;DHT22;1703;51.964;7.642;2023-09-30T13:15:00;19.80;99.90
3380;DHT22;1703;51.964;7.642;2023-09-30T13:17:28;19.80;99.90
3380;DHT22;1703;51.964;7.642;2023-09-30T13:19:55;19.80;99.90
3380;DHT22;1703;51.964;7.642;2023-09-30T13:22:21;19.70;99.90
3380;DHT22;1703;51.964;7.642;2023-09-30T13:24:50;19.70;99.90
3380;DHT22;1703;51.964;7.642;2023-09-30T13:27:17;19.70;99.90
3380;DHT22;1703;51.964;7.642;2023-09-30T13:29:44;19.60;99.90
3380;DHT22;1703;51.964;7.642;2023-09-30T13:32:12;19.60;99.90
3380;DHT22;1703;51.964;7.642;2023-09-30T13:34:39;19.70;99.90
3380;DHT22;1703;51.964;7.642;2023-09-30T13:37:06;19.90;99.90
3380;DHT22;1703;51.964;7.642;2023-09-30T13:39:33;19.90;99.90
3380;DHT22;1703;51.964;7.642;2023-09-30T13:42:01;20.10;99.90
3380;DHT22;1703;51.964;7.642;2023-09-30T13:44:28;20.50;99.90
3380;DHT22;1703;51.964;7.642;2023-09-30T13:46:55;20.80;99.90
3380;DHT22;1703;51.964;7.642;2023-09-30T13:49:22;21.30;99.90
3380;DHT22;1703;51.964;7.642;2023-09-30T13:51:49;21.80;99.90
3380;DHT22;1703;51.964;7.642;2023-09-30T13:54:16;22.20;99.90
3380;DHT22;1703;51.964;7.642;2023-09-30T13:56:42;22.10;99.90
3380;DHT22;1703;51.964;7.642;2023-09-30T13:59:11;22.20;99.90
3380;DHT22;1703;51.964;7.642;2023-09-30T14:01:38;22.40;99.90
3380;DHT22;1703;51.964;7.642;2023-09-30T14:04:07;22.50;99.90
3380;DHT22;1703;51.964;7.642;2023-09-30T14:06:33;22.80;99.90
3380;DHT22;1703;51.964;7.642;2023-09-30T14:09:01;22.70;99.90
3380;DHT22;1703;51.964;7.642;2023-09-30T14:11:28;22.50;99.90
3380;DHT22;1703;51.964;7.642;2023-09-30T14:13:56;22.10;99.90
3380;DHT22;1703;51.964;7.642;2023-09-30T14:16:24;22.00;99.90
3380;DHT22;1703;51.964;7.642;2023-09-30T14:18:51;21.70;99.90
3380;DHT22;1703;51.964;7.642;2023-09-30T14:21:18;21.50;99.90
3380;DHT22;1703;51.964;7.642;2023-09-30T14:23:45;21.30;99.90
3380;DHT22;1703;51.964;7.642;2023-09-30T14:26:12;21.10;99.90
3380;DHT22;1703;51.964;7.642;2023-09-30T14:28:38;21.00;99.90
3380;DHT22;1703;51.964;7.642;2023-09-30T14:31:05;20.90;99.90
3380;DHT22;1703;51.964;7.642;2023-09-30T14:33:34;20.90;99.90
3380;DHT22;1703;51.964;7.642;2023-09-30T14:36:02;20.70;99.90
3380;DHT22;1703;51.964;7.642;2023-09-30T14:38:31;20.60;99.90
3380;DHT22;1703;51.964;7.642;2023-09-30T14:40:58;20.40;99.90
3380;DHT22;1703;51.964;7.642;2023-09-30T14:43:24;20.40;99.90
3380;DHT22;1703;51.964;7.642;2023-09-30T14:45:51;20.40;99.90
3380;DHT22;1703;51.964;7.642;2023-09-30T14:48:18;20.40;99.90
3380;DHT22;1703;51.964;7.642;2023-09-30T14:50:49;20.50;99.90
3380;DHT22;1703;51.964;7.642;2023-09-30T14:53:16;20.50;99.90
3380;DHT22;1703;51.964;7.642;2023-09-30T14:55:45;20.60;99.90
3380;DHT22;1703;51.964;7.642;2023-09-30T14:58:12;20.60;99.90
3380;DHT22;1703;51.964;7.642;2023-09-30T15:00:38;20.50;99.90
3380;DHT22;1703;51.964;7.642;2023-09-30T15:03:05;20.30;99.90
3380;DHT22;1703;51.964;7.642;2023-09-30T15:05:32;20.20;99.90
3380;DHT22;1703;51.964;7.642;2023-09-30T15:08:01;20.10;99.90
3380;DHT22;1703;51.964;7.642;2023-09-30T15:10:28;20.10;99.90
3380;DHT22;1703;51.964;7.642;2023-09-30T15:12:55;20.00;99.90
3380;DHT22;1703;51.964;7.642;2023-09-30T15:15:23;20.00;99.90
3380;DHT22;1703;51.964;7.642;2023-09-30T15:17:50;20.00;99.90
3380;DHT22;1703;51.964;7.642;2023-09-30T15:20:18;20.00;99.90
3380;DHT22;1703;51.964;7.642;2023-09-30T15:22:46;20.00;99.90
3380;DHT22;1703;51.964;7.642;2023-09-30T15:25:14;20.00;99.90
3380;DHT22;1703;51.964;7.642;2023-09-30T15:27:42;20.00;99.90
3380;DHT22;1703;51.964;7.642;2023-09-30T15:30:10;20.00;99.90
3380;DHT22;1703;51.964;7.642;2023-09-30T15:32:39;19.90;99.90
3380;DHT22;1703;51.964;7.642;2023-09-30T15:35:07;19.70;99.90
3380;DHT22;1703;51.964;7.642;2023-09-30T15:37:35;19.70;99.90
3380;DHT22;1703;51.964;7.642;2023-09-30T15:40:02;19.70;99.90
3380;DHT22;1703;51.964;7.642;2023-09-30T15:42:30;19.70;99.90
3380;DHT22;1703;51.964;7.642;2023-09-30T15:44:57;19.70;99.90
3380;DHT22;1703;51.964;7.642;2023-09-30T15:47:24;19.70;99.90
3380;DHT22;1703;51.964;7.642;2023-09-30T15:49:51;19.60;99.90
3380;DHT22;1703;51.964;7.642;2023-09-30T15:52:18;19.50;99.90
3380;DHT22;1703;51.964;7.642;2023-09-30T15:54:45;19.50;99.90
3380;DHT22;1703;51.964;7.642;2023-09-30T15:57:11;19.50;99.90
3380;DHT22;1703;51.964;7.642;2023-09-30T15:59:40;19.40;99.90
3380;DHT22;1703;51.964;7.642;2023-09-30T16:02:07;19.50;99.90
3380;DHT22;1703;51.964;7.642;2023-09-30T16:04:34;19.40;99.90
3380;DHT22;1703;51.964;7.642;2023-09-30T16:07:01;19.40;99.90
3380;DHT22;1703;51.964;7.642;2023-09-30T16:09:28;19.40;99.90
3380;DHT22;1703;51.964;7.642;2023-09-30T16:11:55;19.40;99.90